createdAt,value
2018-03-18T00:01:46.115Z,-4.20
2018-03-18T00:04:14.225Z,-4.20
2018-03-18T00:06:43.306Z,-4.20
2018-03-18T00:09:11.390Z,-4.10
2018-03-18T00:11:39.491Z,-4.20
2018-03-18T00:14:07.570Z,-4.20
2018-03-18T00:16:36.463Z,-4.20
2018-03-18T00:19:04.556Z,-4.30
2018-03-18T00:21:32.655Z,-4.30
2018-03-18T00:24:01.772Z,-4.40
2018-03-18T00:26:29.886Z,-4.40
2018-03-18T00:28:57.990Z,-4.40
2018-03-18T00:31:26.899Z,-4.40
2018-03-18T00:33:55.000Z,-4.40
2018-03-18T00:36:23.288Z,-4.50
2018-03-18T00:38:51.431Z,-4.50
2018-03-18T00:41:20.341Z,-4.40
2018-03-18T00:43:48.482Z,-4.40
2018-03-18T00:46:16.632Z,-4.40
2018-03-18T00:48:44.784Z,-4.40
2018-03-18T00:51:14.894Z,-4.50
2018-03-18T00:53:43.045Z,-4.60
2018-03-18T00:56:11.157Z,-4.50
2018-03-18T00:58:39.238Z,-4.50
2018-03-18T01:01:07.359Z,-4.40
2018-03-18T01:03:36.201Z,-4.50
2018-03-18T01:06:04.299Z,-4.50
2018-03-18T01:08:32.427Z,-4.40
2018-03-18T01:11:01.604Z,-4.50
2018-03-18T01:13:29.711Z,-4.60
2018-03-18T01:15:58.577Z,-4.70
2018-03-18T01:18:26.675Z,-4.70
2018-03-18T01:20:54.769Z,-4.70
2018-03-18T01:23:22.863Z,-4.70
2018-03-18T01:25:50.975Z,-4.70
2018-03-18T01:28:19.088Z,-4.70
2018-03-18T01:30:47.590Z,-4.80
2018-03-18T01:33:15.643Z,-4.70
2018-03-18T01:35:43.858Z,-4.80
2018-03-18T01:38:11.975Z,-4.70
2018-03-18T01:40:40.127Z,-4.70
2018-03-18T01:43:08.454Z,-4.70
2018-03-18T01:45:38.021Z,-4.70
2018-03-18T01:48:06.454Z,-4.70
2018-03-18T01:50:34.571Z,-4.80
2018-03-18T01:53:15.393Z,-4.80
2018-03-18T01:55:43.498Z,-4.80
2018-03-18T01:58:11.590Z,-4.80
2018-03-18T02:00:40.774Z,-4.80
2018-03-18T02:03:12.812Z,-4.80
2018-03-18T02:05:48.677Z,-4.70
2018-03-18T02:08:17.518Z,-4.80
2018-03-18T02:10:45.618Z,-4.80
2018-03-18T02:13:13.843Z,-4.80
2018-03-18T02:15:42.680Z,-4.90
2018-03-18T02:18:10.775Z,-4.90
2018-03-18T02:20:38.892Z,-4.80
2018-03-18T02:23:08.053Z,-4.90
2018-03-18T02:25:36.388Z,-4.90
2018-03-18T02:28:04.464Z,-4.80
2018-03-18T02:30:32.817Z,-4.90
2018-03-18T02:33:00.884Z,-5.00
2018-03-18T02:35:29.808Z,-5.00
2018-03-18T02:37:58.664Z,-5.00
2018-03-18T02:40:27.538Z,-5.00
2018-03-18T02:42:55.776Z,-5.00
2018-03-18T02:45:23.913Z,-5.00
2018-03-18T02:47:52.010Z,-5.00
2018-03-18T02:50:20.147Z,-5.00
2018-03-18T02:52:48.227Z,-5.00
2018-03-18T02:55:16.348Z,-5.00
2018-03-18T02:57:44.490Z,-5.00
2018-03-18T03:00:12.564Z,-5.00
2018-03-18T03:02:40.916Z,-5.00
2018-03-18T03:05:09.798Z,-5.10
2018-03-18T03:07:37.885Z,-5.10
2018-03-18T03:10:05.992Z,-5.10
2018-03-18T03:12:36.604Z,-5.00
2018-03-18T03:15:04.759Z,-5.10
2018-03-18T03:17:32.846Z,-5.00
2018-03-18T03:20:02.440Z,-5.10
2018-03-18T03:22:30.714Z,-5.10
2018-03-18T03:24:58.835Z,-5.10
2018-03-18T03:27:26.940Z,-5.10
2018-03-18T03:29:55.032Z,-5.10
2018-03-18T03:32:23.153Z,-5.10
2018-03-18T03:34:51.238Z,-5.20
2018-03-18T03:37:19.698Z,-5.10
2018-03-18T03:39:47.828Z,-5.20
2018-03-18T03:42:15.926Z,-5.10
2018-03-18T03:44:44.057Z,-5.10
2018-03-18T03:47:12.143Z,-5.20
2018-03-18T03:49:40.358Z,-5.20
2018-03-18T03:52:09.230Z,-5.20
2018-03-18T03:54:37.384Z,-5.20
2018-03-18T03:57:06.203Z,-5.30
2018-03-18T03:59:34.285Z,-5.30
2018-03-18T04:02:03.349Z,-5.20
2018-03-18T04:04:31.475Z,-5.10
2018-03-18T04:06:59.566Z,-5.20
2018-03-18T04:09:27.664Z,-5.20
2018-03-18T04:11:55.765Z,-5.30
2018-03-18T04:14:24.828Z,-5.30
2018-03-18T04:16:52.938Z,-5.30
2018-03-18T04:19:21.026Z,-5.30
2018-03-18T04:21:49.892Z,-5.20
2018-03-18T04:24:17.986Z,-5.20
2018-03-18T04:26:46.098Z,-5.20
2018-03-18T04:29:14.187Z,-5.20
2018-03-18T04:31:42.286Z,-5.30
2018-03-18T04:34:11.192Z,-5.30
2018-03-18T04:36:39.302Z,-5.30
2018-03-18T04:39:07.588Z,-5.30
2018-03-18T04:41:35.684Z,-5.30
2018-03-18T04:44:03.776Z,-5.30
2018-03-18T04:46:31.890Z,-5.20
2018-03-18T04:49:00.964Z,-5.30
2018-03-18T04:51:29.102Z,-5.30
2018-03-18T04:53:58.044Z,-5.30
2018-03-18T04:56:26.956Z,-5.30
2018-03-18T04:58:55.058Z,-5.30
2018-03-18T05:01:23.361Z,-5.40
2018-03-18T05:03:51.491Z,-5.40
2018-03-18T05:06:19.640Z,-5.30
2018-03-18T05:08:47.940Z,-5.40
2018-03-18T05:11:16.984Z,-5.40
2018-03-18T05:13:45.074Z,-5.50
2018-03-18T05:16:13.263Z,-5.40
2018-03-18T05:18:41.354Z,-5.40
2018-03-18T05:21:09.442Z,-5.50
2018-03-18T05:23:37.558Z,-5.40
2018-03-18T05:26:05.863Z,-5.50
2018-03-18T05:28:33.957Z,-5.50
2018-03-18T05:31:02.827Z,-5.50
2018-03-18T05:33:30.951Z,-5.50
2018-03-18T05:35:59.066Z,-5.50
2018-03-18T05:38:27.162Z,-5.50
2018-03-18T05:40:55.305Z,-5.40
2018-03-18T05:43:24.028Z,-5.40
2018-03-18T05:45:52.238Z,-5.40
2018-03-18T05:48:25.792Z,-5.50
2018-03-18T05:50:53.889Z,-5.50
2018-03-18T05:53:22.078Z,-5.40
2018-03-18T05:55:50.188Z,-5.40
2018-03-18T05:58:18.340Z,-5.30
2018-03-18T06:00:47.695Z,-5.30
2018-03-18T06:03:15.764Z,-5.30
2018-03-18T06:05:43.862Z,-5.30
2018-03-18T06:08:11.991Z,-5.20
2018-03-18T06:10:43.748Z,-5.30
2018-03-18T06:13:11.855Z,-5.30
2018-03-18T06:15:39.954Z,-5.30
2018-03-18T06:18:08.318Z,-5.20
2018-03-18T06:20:36.405Z,-5.20
2018-03-18T06:23:04.535Z,-5.10
2018-03-18T06:25:32.642Z,-5.10
2018-03-18T06:28:00.757Z,-5.00
2018-03-18T06:30:29.628Z,-5.00
2018-03-18T06:32:57.727Z,-5.00
2018-03-18T06:35:25.861Z,-5.00
2018-03-18T06:37:54.682Z,-4.90
2018-03-18T06:40:22.802Z,-4.90
2018-03-18T06:42:51.875Z,-4.90
2018-03-18T06:45:20.968Z,-4.90
2018-03-18T06:47:49.045Z,-4.80
2018-03-18T06:50:17.205Z,-4.80
2018-03-18T06:52:45.268Z,-4.70
2018-03-18T06:55:14.178Z,-4.70
2018-03-18T06:57:43.138Z,-4.70
2018-03-18T07:00:11.303Z,-4.70
2018-03-18T07:02:39.402Z,-4.60
2018-03-18T07:05:07.543Z,-4.60
2018-03-18T07:07:35.646Z,-4.50
2018-03-18T07:10:03.787Z,-4.50
2018-03-18T07:12:31.965Z,-4.50
2018-03-18T07:15:00.228Z,-4.50
2018-03-18T07:17:29.750Z,-4.40
2018-03-18T07:19:57.886Z,-4.40
2018-03-18T07:22:25.940Z,-4.40
2018-03-18T07:25:01.118Z,-4.30
2018-03-18T07:27:29.266Z,-4.20
2018-03-18T07:29:57.505Z,-4.20
2018-03-18T07:32:26.407Z,-4.10
2018-03-18T07:34:54.526Z,-4.10
2018-03-18T07:37:23.380Z,-4.00
2018-03-18T07:39:52.297Z,-4.00
2018-03-18T07:42:21.167Z,-4.00
2018-03-18T07:44:49.681Z,-4.00
2018-03-18T07:47:17.815Z,-4.00
2018-03-18T07:49:49.219Z,-3.90
2018-03-18T07:52:30.393Z,-3.90
2018-03-18T07:54:58.646Z,-3.80
2018-03-18T07:57:26.747Z,-3.80
2018-03-18T07:59:59.572Z,-3.80
2018-03-18T08:02:27.732Z,-3.80
2018-03-18T08:04:55.824Z,-3.70
2018-03-18T08:07:23.909Z,-3.70
2018-03-18T08:10:00.100Z,-3.60
2018-03-18T08:12:28.266Z,-3.60
2018-03-18T08:14:56.496Z,-3.50
2018-03-18T08:17:24.622Z,-3.50
2018-03-18T08:19:53.136Z,-3.40
2018-03-18T08:22:21.487Z,-3.40
2018-03-18T08:24:50.078Z,-3.30
2018-03-18T08:27:18.167Z,-3.30
2018-03-18T08:29:46.251Z,-3.20
2018-03-18T08:32:14.357Z,-3.20
2018-03-18T08:34:42.448Z,-3.20
2018-03-18T08:37:10.540Z,-3.10
2018-03-18T08:39:38.615Z,-3.10
2018-03-18T08:42:07.066Z,-3.10
2018-03-18T08:44:35.181Z,-3.00
2018-03-18T08:47:03.419Z,-2.90
2018-03-18T08:49:32.361Z,-2.90
2018-03-18T08:52:01.275Z,-2.90
2018-03-18T08:54:29.366Z,-2.90
2018-03-18T08:56:57.498Z,-2.80
2018-03-18T08:59:26.353Z,-2.60
2018-03-18T09:01:54.544Z,-2.60
2018-03-18T09:04:22.784Z,-2.60
2018-03-18T09:06:50.883Z,-2.50
2018-03-18T09:09:19.097Z,-2.50
2018-03-18T09:11:47.220Z,-2.50
2018-03-18T09:14:16.245Z,-2.50
2018-03-18T09:16:44.456Z,-2.50
2018-03-18T09:19:12.783Z,-2.50
2018-03-18T09:21:41.768Z,-2.20
2018-03-18T09:24:09.893Z,-2.30
2018-03-18T09:26:38.004Z,-2.20
2018-03-18T09:29:06.097Z,-2.10
2018-03-18T09:31:34.199Z,-2.10
2018-03-18T09:34:02.303Z,-2.10
2018-03-18T09:36:30.415Z,-2.00
2018-03-18T09:38:59.344Z,-1.90
2018-03-18T09:41:27.476Z,-1.90
2018-03-18T09:43:55.632Z,-1.90
2018-03-18T09:46:23.795Z,-1.80
2018-03-18T09:48:51.921Z,-1.80
2018-03-18T09:51:20.046Z,-1.80
2018-03-18T09:53:48.178Z,-1.80
2018-03-18T09:56:17.151Z,-1.60
2018-03-18T09:58:45.276Z,-1.70
2018-03-18T10:01:13.432Z,-1.60
2018-03-18T10:03:41.576Z,-1.60
2018-03-18T10:06:09.792Z,-1.60
2018-03-18T10:08:37.903Z,-1.50
2018-03-18T10:11:15.439Z,-1.50
2018-03-18T10:13:44.713Z,-1.40
2018-03-18T10:16:12.882Z,-1.40
2018-03-18T10:18:41.016Z,-1.30
2018-03-18T10:21:10.299Z,-1.20
2018-03-18T10:23:39.159Z,-1.10
2018-03-18T10:26:08.015Z,-1.10
2018-03-18T10:28:43.372Z,-1.10
2018-03-18T10:31:19.303Z,-0.90
2018-03-18T10:33:48.210Z,-0.80
2018-03-18T10:36:17.106Z,-0.80
2018-03-18T10:38:45.332Z,-0.80
2018-03-18T10:41:13.455Z,-0.80
2018-03-18T10:43:42.436Z,-0.80
2018-03-18T10:46:10.619Z,-0.80
2018-03-18T10:48:38.693Z,-0.80
2018-03-18T10:51:07.708Z,-0.80
2018-03-18T10:53:35.800Z,-0.80
2018-03-18T10:56:04.076Z,-0.70
2018-03-18T10:58:32.381Z,-0.60
2018-03-18T11:01:06.898Z,-0.60
2018-03-18T11:06:15.230Z,-0.50
2018-03-18T11:08:43.432Z,-0.50
2018-03-18T11:11:11.872Z,-0.40
2018-03-18T11:13:40.592Z,-0.40
2018-03-18T11:16:10.322Z,-0.40
2018-03-18T11:18:38.358Z,-0.40
2018-03-18T11:21:06.501Z,-0.30
2018-03-18T11:23:34.830Z,-0.30
2018-03-18T11:26:07.976Z,-0.20
2018-03-18T11:28:38.042Z,-0.30
2018-03-18T11:31:09.301Z,-0.40
2018-03-18T11:33:37.446Z,-0.30
2018-03-18T11:36:06.337Z,-0.30
2018-03-18T11:38:34.488Z,-0.30
2018-03-18T11:41:02.606Z,-0.30
2018-03-18T11:43:32.205Z,-0.20
2018-03-18T11:46:00.342Z,-0.20
2018-03-18T11:48:28.460Z,-0.20
2018-03-18T11:50:57.510Z,-0.20
2018-03-18T11:53:25.648Z,-0.20
2018-03-18T11:55:53.875Z,-0.20
2018-03-18T11:58:23.884Z,-0.20
2018-03-18T12:00:52.856Z,-0.10
2018-03-18T12:03:21.070Z,-0.10
2018-03-18T12:05:49.183Z,0.00
2018-03-18T12:08:29.013Z,0.10
2018-03-18T12:10:57.278Z,0.10
2018-03-18T12:13:25.417Z,0.00
2018-03-18T12:15:54.101Z,0.10
2018-03-18T12:18:22.385Z,0.10
2018-03-18T12:20:50.869Z,0.00
2018-03-18T12:23:19.097Z,0.00
2018-03-18T12:25:47.402Z,0.10
2018-03-18T12:28:15.518Z,0.00
2018-03-18T12:30:43.704Z,0.10
2018-03-18T12:33:12.185Z,0.10
2018-03-18T12:35:40.319Z,0.10
2018-03-18T12:38:09.323Z,0.10
2018-03-18T12:40:37.434Z,0.10
2018-03-18T12:43:17.545Z,0.00
2018-03-18T12:45:46.753Z,0.10
2018-03-18T12:48:15.034Z,0.10
2018-03-18T12:50:43.110Z,0.10
2018-03-18T12:53:11.413Z,0.20
2018-03-18T12:55:39.482Z,0.10
2018-03-18T12:58:08.698Z,0.10
2018-03-18T13:00:37.611Z,0.10
2018-03-18T13:03:05.713Z,0.10
2018-03-18T13:05:34.971Z,0.20
2018-03-18T13:08:14.235Z,0.10
2018-03-18T13:10:42.314Z,0.20
2018-03-18T13:13:11.432Z,0.30
2018-03-18T13:15:39.949Z,0.30
2018-03-18T13:18:08.844Z,0.30
2018-03-18T13:20:37.724Z,0.20
2018-03-18T13:23:05.930Z,0.20
2018-03-18T13:25:34.772Z,0.20
2018-03-18T13:28:03.040Z,0.30
2018-03-18T13:30:31.095Z,0.30
2018-03-18T13:32:59.251Z,0.30
2018-03-18T13:35:27.398Z,0.40
2018-03-18T13:37:55.808Z,0.40
2018-03-18T13:40:23.943Z,0.40
2018-03-18T13:43:08.406Z,0.30
2018-03-18T13:45:36.479Z,0.20
2018-03-18T13:48:04.578Z,0.20
2018-03-18T13:50:32.683Z,0.20
2018-03-18T13:53:01.572Z,0.30
2018-03-18T13:55:29.686Z,0.30
2018-03-18T13:57:57.870Z,0.30
2018-03-18T14:00:25.963Z,0.40
2018-03-18T14:02:54.082Z,0.40
2018-03-18T14:05:22.459Z,0.40
2018-03-18T14:07:50.620Z,0.30
2018-03-18T14:10:23.451Z,0.30
2018-03-18T14:12:51.601Z,0.30
2018-03-18T14:15:19.677Z,0.30
2018-03-18T14:17:48.565Z,0.20
2018-03-18T14:20:17.595Z,0.20
2018-03-18T14:22:45.731Z,0.20
2018-03-18T14:25:13.977Z,0.20
2018-03-18T14:27:42.167Z,0.20
2018-03-18T14:30:10.262Z,0.10
2018-03-18T14:32:38.415Z,0.10
2018-03-18T14:35:06.707Z,0.10
2018-03-18T14:37:34.802Z,0.20
2018-03-18T14:40:02.949Z,0.30
2018-03-18T14:42:32.009Z,0.30
2018-03-18T14:45:01.167Z,0.30
2018-03-18T14:47:29.216Z,0.30
2018-03-18T14:49:57.318Z,0.30
2018-03-18T14:52:25.426Z,0.20
2018-03-18T14:54:54.316Z,0.20
2018-03-18T14:57:22.788Z,0.20
2018-03-18T14:59:50.966Z,0.20
2018-03-18T15:02:19.935Z,0.20
2018-03-18T15:04:48.025Z,0.10
2018-03-18T15:07:16.228Z,0.10
2018-03-18T15:09:48.461Z,0.10
2018-03-18T15:12:16.685Z,0.10
2018-03-18T15:14:46.184Z,0.10
2018-03-18T15:17:15.068Z,0.00
2018-03-18T15:19:46.261Z,0.00
2018-03-18T15:22:14.350Z,0.00
2018-03-18T15:24:42.533Z,0.00
2018-03-18T15:27:10.634Z,0.00
2018-03-18T15:29:38.743Z,0.00
2018-03-18T15:32:07.910Z,0.00
2018-03-18T15:34:36.107Z,-0.10
2018-03-18T15:37:06.229Z,-0.10
2018-03-18T15:39:36.281Z,-0.10
2018-03-18T15:42:04.451Z,-0.10
2018-03-18T15:44:32.658Z,-0.10
2018-03-18T15:47:00.765Z,-0.10
2018-03-18T15:49:28.893Z,-0.10
2018-03-18T15:51:57.894Z,0.00
2018-03-18T15:54:26.409Z,-0.10
2018-03-18T15:56:54.626Z,-0.10
2018-03-18T15:59:22.719Z,0.00
2018-03-18T16:01:50.813Z,-0.10
2018-03-18T16:04:18.941Z,0.00
2018-03-18T16:06:47.036Z,0.00
2018-03-18T16:09:16.006Z,0.00
2018-03-18T16:11:44.204Z,0.00
2018-03-18T16:14:12.364Z,0.00
2018-03-18T16:16:46.318Z,-0.10
2018-03-18T16:19:14.486Z,-0.10
2018-03-18T16:21:44.172Z,-0.10
2018-03-18T16:24:12.273Z,-0.10
2018-03-18T16:26:41.155Z,-0.10
2018-03-18T16:29:21.311Z,-0.20
2018-03-18T16:31:54.898Z,-0.10
2018-03-18T16:34:23.035Z,-0.10
2018-03-18T16:36:51.896Z,-0.10
2018-03-18T16:39:20.064Z,-0.10
2018-03-18T16:41:48.190Z,-0.10
2018-03-18T16:44:16.296Z,-0.10
2018-03-18T16:46:45.198Z,-0.20
2018-03-18T16:49:13.341Z,-0.20
2018-03-18T16:51:41.542Z,-0.20
2018-03-18T16:54:09.632Z,-0.20
2018-03-18T16:56:37.760Z,-0.20
2018-03-18T16:59:05.939Z,-0.30
2018-03-18T17:01:34.048Z,-0.30
2018-03-18T17:04:02.187Z,-0.40
2018-03-18T17:06:31.083Z,-0.60
2018-03-18T17:08:59.174Z,-0.60
2018-03-18T17:11:27.264Z,-0.60
2018-03-18T17:13:56.137Z,-0.60
2018-03-18T17:16:24.280Z,-0.70
2018-03-18T17:18:58.567Z,-0.70
2018-03-18T17:21:26.793Z,-0.80
2018-03-18T17:23:54.996Z,-0.80
2018-03-18T17:26:23.196Z,-0.80
2018-03-18T17:28:51.428Z,-0.80
2018-03-18T17:31:20.434Z,-0.90
2018-03-18T17:33:51.365Z,-1.00
2018-03-18T17:36:19.531Z,-1.00
2018-03-18T17:38:48.924Z,-1.00
2018-03-18T17:41:17.056Z,-1.10
2018-03-18T17:43:45.157Z,-1.10
2018-03-18T17:46:25.712Z,-1.20
2018-03-18T17:49:05.627Z,-1.20
2018-03-18T17:51:43.476Z,-1.30
2018-03-18T17:54:23.446Z,-1.20
2018-03-18T17:56:51.677Z,-1.30
2018-03-18T17:59:22.062Z,-1.30
2018-03-18T18:01:53.007Z,-1.40
2018-03-18T18:04:23.351Z,-1.40
2018-03-18T18:06:54.609Z,-1.50
2018-03-18T18:09:26.320Z,-1.50
2018-03-18T18:12:05.831Z,-1.60
2018-03-18T18:14:40.168Z,-1.60
2018-03-18T18:17:16.304Z,-1.60
2018-03-18T18:19:47.788Z,-1.60
2018-03-18T18:22:18.626Z,-1.70
2018-03-18T18:24:56.744Z,-1.80
2018-03-18T18:27:30.557Z,-1.80
2018-03-18T18:30:00.686Z,-1.70
2018-03-18T18:32:34.350Z,-1.80
2018-03-18T18:35:11.047Z,-1.80
2018-03-18T18:37:43.196Z,-1.90
2018-03-18T18:40:20.902Z,-1.90
2018-03-18T18:42:54.019Z,-1.90
2018-03-18T18:45:25.873Z,-1.90
2018-03-18T18:48:00.490Z,-2.00
2018-03-18T18:50:29.372Z,-1.90
2018-03-18T18:52:57.704Z,-2.00
2018-03-18T18:55:28.022Z,-2.00
2018-03-18T18:58:02.195Z,-2.00
2018-03-18T19:00:37.079Z,-1.90
2018-03-18T19:03:11.616Z,-2.00
2018-03-18T19:05:49.146Z,-2.10
2018-03-18T19:08:19.782Z,-2.10
2018-03-18T19:10:48.056Z,-2.10
2018-03-18T19:13:16.159Z,-2.10
2018-03-18T19:15:44.414Z,-2.20
2018-03-18T19:18:12.544Z,-2.10
2018-03-18T19:20:40.654Z,-2.20
2018-03-18T19:23:08.775Z,-2.20
2018-03-18T19:25:36.892Z,-2.20
2018-03-18T19:28:05.008Z,-2.20
2018-03-18T19:30:33.883Z,-2.30
2018-03-18T19:33:02.018Z,-2.30
2018-03-18T19:35:30.152Z,-2.40
2018-03-18T19:37:58.242Z,-2.40
2018-03-18T19:40:26.366Z,-2.50
2018-03-18T19:43:06.939Z,-2.40
2018-03-18T19:45:35.839Z,-2.40
2018-03-18T19:48:04.750Z,-2.40
2018-03-18T19:50:33.624Z,-2.50
2018-03-18T19:53:01.967Z,-2.50
2018-03-18T19:55:30.104Z,-2.50
2018-03-18T19:57:59.159Z,-2.50
2018-03-18T20:00:27.276Z,-2.50
2018-03-18T20:02:55.395Z,-2.40
2018-03-18T20:05:24.287Z,-2.50
2018-03-18T20:07:53.199Z,-2.50
2018-03-18T20:10:23.351Z,-2.50
2018-03-18T20:12:51.469Z,-2.50
2018-03-18T20:15:19.744Z,-2.50
2018-03-18T20:17:47.991Z,-2.50
2018-03-18T20:20:16.127Z,-2.50
2018-03-18T20:22:44.229Z,-2.50
2018-03-18T20:25:12.433Z,-2.50
2018-03-18T20:27:40.579Z,-2.60
2018-03-18T20:30:13.988Z,-2.60
2018-03-18T20:32:42.098Z,-2.60
2018-03-18T20:35:10.229Z,-2.70
2018-03-18T20:37:38.390Z,-2.70
2018-03-18T20:40:07.341Z,-2.80
2018-03-18T20:42:35.452Z,-2.80
2018-03-18T20:45:03.587Z,-2.70
2018-03-18T20:47:31.761Z,-2.80
2018-03-18T20:50:05.584Z,-2.80
2018-03-18T20:52:33.715Z,-2.80
2018-03-18T20:55:01.867Z,-2.90
2018-03-18T20:57:29.985Z,-2.90
2018-03-18T20:59:58.189Z,-2.90
2018-03-18T21:02:26.274Z,-2.90
2018-03-18T21:04:54.388Z,-2.90
2018-03-18T21:07:22.552Z,-2.90
2018-03-18T21:09:51.476Z,-2.90
2018-03-18T21:12:19.603Z,-2.90
2018-03-18T21:14:47.738Z,-2.90
2018-03-18T21:17:24.840Z,-2.90
2018-03-18T21:19:53.815Z,-2.90
2018-03-18T21:22:22.015Z,-3.00
2018-03-18T21:24:50.192Z,-2.90
2018-03-18T21:27:18.347Z,-3.00
2018-03-18T21:29:46.550Z,-3.00
2018-03-18T21:32:14.795Z,-2.90
2018-03-18T21:34:42.863Z,-3.00
2018-03-18T21:37:10.975Z,-3.00
2018-03-18T21:39:39.083Z,-3.00
2018-03-18T21:42:11.989Z,-3.00
2018-03-18T21:44:40.188Z,-3.10
2018-03-18T21:47:08.294Z,-3.10
2018-03-18T21:49:36.399Z,-3.00
2018-03-18T21:52:04.564Z,-3.10
2018-03-18T21:54:32.754Z,-3.10
2018-03-18T21:57:00.846Z,-3.10
2018-03-18T21:59:28.938Z,-3.20
2018-03-18T22:01:57.047Z,-3.20
2018-03-18T22:04:25.149Z,-3.20
2018-03-18T22:06:53.225Z,-3.20
2018-03-18T22:09:21.347Z,-3.20
2018-03-18T22:11:50.218Z,-3.20
2018-03-18T22:14:18.413Z,-3.20
2018-03-18T22:16:46.503Z,-3.20
2018-03-18T22:19:14.678Z,-3.20
2018-03-18T22:21:42.876Z,-3.20
2018-03-18T22:24:11.052Z,-3.30
2018-03-18T22:26:40.116Z,-3.20
2018-03-18T22:29:08.310Z,-3.30
2018-03-18T22:31:36.474Z,-3.30
2018-03-18T22:34:04.658Z,-3.30
2018-03-18T22:36:33.131Z,-3.30
2018-03-18T22:39:02.076Z,-3.30
2018-03-18T22:41:30.235Z,-3.30
2018-03-18T22:43:58.431Z,-3.40
2018-03-18T22:46:26.530Z,-3.40
2018-03-18T22:48:54.664Z,-3.40
2018-03-18T22:51:22.835Z,-3.40
2018-03-18T22:53:51.175Z,-3.40
2018-03-18T22:56:19.293Z,-3.40
2018-03-18T22:58:47.399Z,-3.30
2018-03-18T23:01:19.363Z,-3.40
2018-03-18T23:03:47.434Z,-3.40
2018-03-18T23:06:15.571Z,-3.40
2018-03-18T23:08:43.725Z,-3.50
2018-03-18T23:11:11.893Z,-3.50
2018-03-18T23:13:40.092Z,-3.50
2018-03-18T23:16:08.213Z,-3.50
2018-03-18T23:18:37.118Z,-3.50
2018-03-18T23:21:05.968Z,-3.40
2018-03-18T23:23:34.135Z,-3.40
2018-03-18T23:26:02.267Z,-3.40
2018-03-18T23:28:30.366Z,-3.50
2018-03-18T23:30:58.459Z,-3.50
2018-03-18T23:33:26.661Z,-3.60
2018-03-18T23:35:54.807Z,-3.60
2018-03-18T23:38:22.907Z,-3.60
2018-03-18T23:40:50.990Z,-3.70
2018-03-18T23:43:24.654Z,-3.80
2018-03-18T23:45:52.726Z,-3.80
2018-03-18T23:48:21.600Z,-3.70
2018-03-18T23:50:50.470Z,-3.80
2018-03-18T23:53:18.575Z,-3.80
2018-03-18T23:55:47.449Z,-3.80
2018-03-18T23:58:15.551Z,-3.80
